Saint Marys, Indiana
Current Conditions -  °F | °C
As of 5:54 PM on Wednesday 17 Dec 2014 (Local Time) from KSBN Reporting Station
Overcast Overcast  
Wind Chill: 19°   Ceiling: 2800
Heat Index: 28°   Visibility: 10mi
Dew Point: 21°   Wind: 10mph
Humidity: 75%   Direction: 280°W
Pressure: 30.22"   Gusts: NA
Location:  41.7197°N, 86.2504°W
Report Text: KSBN 172254Z 28009KT 10SM SCT021 OVC028 M02/M06 A3022 RMK AO2 SLP242 T10221061
Loading
Personal Weather Stations






























Interactive Weather Map New forecast layout! Learn more

10-Day Weather Forecast

Advertisements
Track Severe Weather on mobile